Time;durP1;ratioP1;P1;durP2;ratioP2;P2;SDS_P1;SDS_P2;PMS_P1;PMS_P2;Temp;Humidity;BMP_temperature;BMP_pressure;BME280_temperature;BME280_humidity;BME280_pressure;Samples;Min_cycle;Max_cycle;Signal;HPM_P1;HPM_P2
2023/04/10 00:01:16;;;;;;;65.95;39.92;;;9.10;99.90;;;;;;5100816;28;20043;-84
2023/04/10 00:03:42;;;;;;;65.60;39.78;;;9.00;99.90;;;;;;5062798;28;20102;-84
2023/04/10 00:06:07;;;;;;;71.45;43.03;;;9.00;99.90;;;;;;5084019;28;20040;-84
2023/04/10 00:08:33;;;;;;;66.07;40.63;;;9.00;99.90;;;;;;5093525;28;20036;-84
2023/04/10 00:10:59;;;;;;;67.50;42.40;;;9.00;99.90;;;;;;5078335;28;20453;-83
2023/04/10 00:13:25;;;;;;;65.38;42.17;;;8.90;99.90;;;;;;5093131;28;20070;-84
2023/04/10 00:15:51;;;;;;;67.35;41.15;;;9.00;99.90;;;;;;5071141;28;20039;-83
2023/04/10 00:18:17;;;;;;;71.68;45.00;;;8.90;99.90;;;;;;5074493;28;20115;-84
2023/04/10 00:20:42;;;;;;;61.67;38.80;;;8.90;99.90;;;;;;5091712;28;20039;-84
2023/04/10 00:23:08;;;;;;;65.80;41.55;;;8.90;99.90;;;;;;5090608;28;20044;-83
2023/04/10 00:25:34;;;;;;;68.22;40.92;;;8.80;99.90;;;;;;5074674;28;20044;-83
2023/04/10 00:27:59;;;;;;;62.67;40.42;;;8.90;99.90;;;;;;5086940;28;20055;-83
2023/04/10 00:30:25;;;;;;;68.47;43.20;;;8.80;99.90;;;;;;5092168;28;20490;-83
2023/04/10 00:32:51;;;;;;;59.45;38.05;;;8.80;99.90;;;;;;5094687;28;20092;-84
2023/04/10 00:35:17;;;;;;;66.65;42.67;;;8.80;99.90;;;;;;5094268;28;20035;-83
2023/04/10 00:37:42;;;;;;;64.30;41.35;;;8.70;99.90;;;;;;5077218;28;20043;-84
2023/04/10 00:40:08;;;;;;;66.43;39.50;;;8.70;99.90;;;;;;5091490;28;20042;-84
2023/04/10 00:42:34;;;;;;;63.92;39.35;;;8.70;99.90;;;;;;5094735;28;20039;-84
2023/04/10 00:45:00;;;;;;;66.38;40.05;;;8.70;99.90;;;;;;5094387;28;20357;-84
2023/04/10 00:47:26;;;;;;;71.95;41.67;;;8.60;99.90;;;;;;5064869;28;20049;-83
2023/04/10 00:49:52;;;;;;;66.00;40.13;;;8.50;99.90;;;;;;5093281;28;20039;-83
2023/04/10 00:52:18;;;;;;;71.10;42.67;;;8.50;99.90;;;;;;5077470;28;20122;-83
2023/04/10 00:54:44;;;;;;;65.22;41.08;;;8.50;99.90;;;;;;5092822;28;20055;-84
2023/04/10 00:57:10;;;;;;;66.82;41.47;;;8.50;99.90;;;;;;5088006;28;20408;-84
2023/04/10 00:59:36;;;;;;;63.17;40.28;;;8.40;99.90;;;;;;5088578;28;20067;-84
2023/04/10 01:02:02;;;;;;;63.17;39.03;;;8.40;99.90;;;;;;5084681;28;20067;-84
2023/04/10 01:04:29;;;;;;;65.15;37.83;;;8.40;99.90;;;;;;5073291;28;20096;-83
2023/04/10 01:06:59;;;;;;;67.47;39.35;;;8.40;99.90;;;;;;5071097;28;20584;-84
2023/04/10 01:09:43;;;;;;;67.65;40.22;;;8.40;99.90;;;;;;5070246;28;20412;-83
2023/04/10 01:12:27;;;;;;;63.67;39.45;;;8.30;99.90;;;;;;5079503;28;20035;-81
2023/04/10 01:15:05;;;;;;;67.82;41.75;;;8.30;99.90;;;;;;5113804;28;20063;-83
2023/04/10 01:17:56;;;;;;;63.13;40.63;;;8.20;99.90;;;;;;5090054;28;20040;-84
2023/04/10 01:20:24;;;;;;;63.40;40.53;;;8.20;99.90;;;;;;5091375;28;20046;-84
2023/04/10 01:23:09;;;;;;;60.72;39.13;;;8.20;99.90;;;;;;5073937;28;20062;-83
2023/04/10 01:25:42;;;;;;;62.55;38.33;;;8.10;99.90;;;;;;5073347;28;20089;-83
2023/04/10 01:28:37;;;;;;;61.65;37.33;;;8.10;99.90;;;;;;5095638;28;20039;-83
2023/04/10 01:31:06;;;;;;;60.35;39.70;;;8.10;99.90;;;;;;5091599;28;20040;-83
2023/04/10 01:33:44;;;;;;;68.32;41.60;;;8.00;99.90;;;;;;5069947;28;20036;-83
2023/04/10 01:36:12;;;;;;;63.38;39.25;;;8.00;99.90;;;;;;5087747;28;20040;-83
2023/04/10 01:38:43;;;;;;;63.53;39.25;;;8.00;99.90;;;;;;5093016;28;20067;-84
2023/04/10 01:41:08;;;;;;;59.88;37.40;;;8.00;99.90;;;;;;5077384;28;20044;-84
2023/04/10 01:43:36;;;;;;;67.28;41.72;;;8.00;99.90;;;;;;5076977;28;20053;-84
2023/04/10 01:46:03;;;;;;;62.72;40.47;;;8.00;99.90;;;;;;5090779;28;20540;-84
2023/04/10 01:48:29;;;;;;;62.33;38.78;;;7.90;99.90;;;;;;5091293;28;20445;-84
2023/04/10 01:50:56;;;;;;;65.18;41.80;;;8.00;99.90;;;;;;5094869;28;20040;-83
2023/04/10 01:53:23;;;;;;;66.82;42.72;;;8.00;99.90;;;;;;5089445;28;20035;-83
2023/04/10 01:55:50;;;;;;;64.72;39.35;;;7.90;99.90;;;;;;5073574;28;20035;-84
2023/04/10 01:58:16;;;;;;;62.58;37.25;;;7.90;99.90;;;;;;5077039;28;20546;-83
2023/04/10 02:00:42;;;;;;;62.25;39.13;;;7.90;99.90;;;;;;5093077;28;20040;-84
2023/04/10 02:03:11;;;;;;;61.60;37.83;;;7.80;99.90;;;;;;5077066;28;20136;-84
2023/04/10 02:05:53;;;;;;;63.15;37.13;;;7.80;99.90;;;;;;5060651;28;20036;-83
2023/04/10 02:08:42;;;;;;;61.30;38.08;;;7.80;99.90;;;;;;5084746;28;20039;-84
2023/04/10 02:11:41;;;;;;;60.50;39.17;;;7.80;99.90;;;;;;5103810;28;20120;-83
2023/04/10 02:14:10;;;;;;;64.82;39.60;;;7.80;99.90;;;;;;5074288;28;20046;-83
2023/04/10 02:16:38;;;;;;;62.17;38.70;;;7.70;99.90;;;;;;5088708;28;20135;-83
2023/04/10 02:19:05;;;;;;;57.28;36.17;;;7.70;99.90;;;;;;5089888;28;20032;-82
2023/04/10 02:21:32;;;;;;;61.60;38.97;;;7.70;99.90;;;;;;5093054;28;20137;-83
2023/04/10 02:23:59;;;;;;;53.88;34.35;;;7.70;99.90;;;;;;5094319;28;20031;-83
2023/04/10 02:26:24;;;;;;;60.10;36.53;;;7.70;99.90;;;;;;5107013;28;20047;-84
2023/04/10 02:28:50;;;;;;;55.20;34.80;;;7.70;99.90;;;;;;5068342;28;20050;-82
2023/04/10 02:31:16;;;;;;;56.42;36.03;;;7.70;99.90;;;;;;5089056;28;20048;-83
2023/04/10 02:33:42;;;;;;;61.33;38.42;;;7.60;99.90;;;;;;5095919;28;20404;-83
2023/04/10 02:36:08;;;;;;;55.33;34.97;;;7.60;99.90;;;;;;5088014;28;20035;-83
2023/04/10 02:38:34;;;;;;;54.25;34.67;;;7.60;99.90;;;;;;5068585;28;20036;-84
2023/04/10 02:41:00;;;;;;;62.97;36.88;;;7.60;99.90;;;;;;5086045;28;20042;-83
2023/04/10 02:43:25;;;;;;;54.65;34.35;;;7.50;99.90;;;;;;5096018;28;20039;-84
2023/04/10 02:45:52;;;;;;;55.38;34.75;;;7.50;99.90;;;;;;5087445;28;20383;-83
2023/04/10 02:48:18;;;;;;;50.60;34.63;;;7.50;99.90;;;;;;5092674;28;20088;-83
2023/04/10 02:50:46;;;;;;;50.75;30.42;;;7.50;99.90;;;;;;5092704;28;20052;-83
2023/04/10 02:53:16;;;;;;;52.80;33.20;;;7.50;99.90;;;;;;5078902;28;20035;-83
2023/04/10 02:55:41;;;;;;;51.25;31.88;;;7.70;99.90;;;;;;5079572;28;20126;-83
2023/04/10 02:58:07;;;;;;;47.13;30.85;;;7.50;99.90;;;;;;5092444;28;20119;-83
2023/04/10 03:00:33;;;;;;;54.65;32.47;;;7.40;99.90;;;;;;5113695;28;20096;-83
2023/04/10 03:02:58;;;;;;;50.65;33.13;;;7.50;99.90;;;;;;5079553;28;20505;-83
2023/04/10 03:05:25;;;;;;;49.65;30.50;;;7.40;99.90;;;;;;5079917;28;20051;-84
2023/04/10 03:07:53;;;;;;;50.22;32.78;;;7.40;99.90;;;;;;5061124;28;20108;-83
2023/04/10 03:10:18;;;;;;;48.47;31.13;;;7.40;99.90;;;;;;5077519;28;20032;-83
2023/04/10 03:12:44;;;;;;;46.88;29.98;;;7.40;99.90;;;;;;5078468;28;20035;-84
2023/04/10 03:15:10;;;;;;;47.90;30.23;;;7.40;99.90;;;;;;5080191;28;20130;-84
2023/04/10 03:17:36;;;;;;;47.53;30.35;;;7.40;99.90;;;;;;5094885;28;20055;-83
2023/04/10 03:20:02;;;;;;;49.13;29.90;;;7.40;99.90;;;;;;5055649;28;20036;-83
2023/04/10 03:22:30;;;;;;;45.85;29.80;;;7.40;99.90;;;;;;5073156;28;20044;-83
2023/04/10 03:24:56;;;;;;;46.38;28.55;;;7.40;99.90;;;;;;5062141;28;20043;-84
2023/04/10 03:27:22;;;;;;;43.75;28.23;;;7.30;99.90;;;;;;5078937;28;20046;-83
2023/04/10 03:29:47;;;;;;;45.35;29.95;;;7.30;99.90;;;;;;5088814;28;20499;-84
2023/04/10 03:32:13;;;;;;;46.83;29.50;;;7.30;99.90;;;;;;5094057;28;20070;-84
2023/04/10 03:34:39;;;;;;;44.83;29.02;;;7.40;99.90;;;;;;5074528;28;20437;-83
2023/04/10 03:37:05;;;;;;;42.40;26.67;;;7.40;99.90;;;;;;5090778;28;20404;-83
2023/04/10 03:39:30;;;;;;;40.72;27.00;;;7.40;99.90;;;;;;5077390;28;20128;-84
2023/04/10 03:41:56;;;;;;;40.53;26.10;;;7.40;99.90;;;;;;5097334;28;20031;-83
2023/04/10 03:44:22;;;;;;;40.05;25.08;;;7.40;99.90;;;;;;5102779;28;20036;-84
2023/04/10 03:46:47;;;;;;;41.83;25.25;;;7.40;99.90;;;;;;5096787;28;20044;-83
2023/04/10 03:49:13;;;;;;;35.55;23.52;;;7.40;99.90;;;;;;5064174;28;20032;-84
2023/04/10 03:51:39;;;;;;;37.88;23.63;;;7.50;99.90;;;;;;5073467;28;20127;-84
2023/04/10 03:54:04;;;;;;;36.88;22.63;;;7.50;99.90;;;;;;5084355;28;20036;-83
2023/04/10 03:56:30;;;;;;;36.72;24.98;;;7.40;99.90;;;;;;5070029;28;20095;-84
2023/04/10 03:58:56;;;;;;;37.08;22.40;;;7.40;99.90;;;;;;5069254;28;20127;-83
2023/04/10 04:01:22;;;;;;;35.08;21.52;;;7.40;99.90;;;;;;5093063;28;20051;-84
2023/04/10 04:03:47;;;;;;;36.40;23.17;;;7.40;99.90;;;;;;5078968;28;20048;-83
2023/04/10 04:06:13;;;;;;;32.70;20.77;;;7.40;99.90;;;;;;5072489;28;20040;-83
2023/04/10 04:08:39;;;;;;;31.83;20.27;;;7.40;99.90;;;;;;5091447;28;20028;-83
2023/04/10 04:11:05;;;;;;;32.70;21.75;;;7.40;99.90;;;;;;5064712;28;20135;-83
2023/04/10 04:13:30;;;;;;;31.30;20.40;;;7.40;99.90;;;;;;5074464;28;20421;-83
2023/04/10 04:15:56;;;;;;;32.13;20.40;;;7.50;99.90;;;;;;5093631;28;20101;-83
2023/04/10 04:18:22;;;;;;;32.38;21.33;;;7.50;99.90;;;;;;5070843;28;20071;-82
2023/04/10 04:20:47;;;;;;;32.72;20.48;;;8.40;99.90;;;;;;5094976;28;20602;-83
2023/04/10 04:23:13;;;;;;;32.63;19.60;;;7.60;99.90;;;;;;5095478;28;20052;-83
2023/04/10 04:25:39;;;;;;;31.15;19.50;;;7.50;99.90;;;;;;5078035;28;20063;-83
2023/04/10 04:28:05;;;;;;;30.05;18.42;;;7.60;99.90;;;;;;5075181;28;20044;-83
2023/04/10 04:30:30;;;;;;;33.97;21.85;;;7.70;99.90;;;;;;5083017;28;20122;-84
2023/04/10 04:32:56;;;;;;;29.38;18.73;;;7.60;99.90;;;;;;5062292;28;20078;-83
2023/04/10 04:35:22;;;;;;;30.38;18.80;;;7.70;99.90;;;;;;5093577;28;20035;-83
2023/04/10 04:37:47;;;;;;;33.15;19.25;;;7.70;99.90;;;;;;5094900;28;20040;-83
2023/04/10 04:40:13;;;;;;;31.95;19.95;;;7.70;99.90;;;;;;5092216;28;20036;-84
2023/04/10 04:42:39;;;;;;;30.50;19.33;;;7.60;99.90;;;;;;5087652;28;20492;-83
2023/04/10 04:45:05;;;;;;;29.50;18.77;;;7.70;99.90;;;;;;5094525;28;20039;-84
2023/04/10 04:47:31;;;;;;;29.73;19.92;;;7.70;99.90;;;;;;5075404;28;20043;-84
2023/04/10 04:49:57;;;;;;;28.45;18.15;;;7.70;99.90;;;;;;5077103;28;20506;-83
2023/04/10 04:52:22;;;;;;;29.77;20.10;;;7.60;99.90;;;;;;5096391;28;20128;-83
2023/04/10 04:54:48;;;;;;;32.03;21.42;;;7.60;99.90;;;;;;5077149;28;20036;-84
2023/04/10 04:57:14;;;;;;;31.85;21.38;;;7.60;99.90;;;;;;5095806;28;20048;-83
2023/04/10 04:59:39;;;;;;;27.30;18.13;;;7.80;99.90;;;;;;5101341;28;20059;-85
2023/04/10 05:02:05;;;;;;;29.40;18.08;;;7.80;99.90;;;;;;5092703;28;20059;-83
2023/04/10 05:04:31;;;;;;;28.13;17.70;;;7.60;99.90;;;;;;5076574;28;20040;-84
2023/04/10 05:06:56;;;;;;;27.90;18.40;;;7.60;99.90;;;;;;5074986;28;20040;-82
2023/04/10 05:09:22;;;;;;;26.52;17.30;;;7.60;99.90;;;;;;5093315;28;20045;-84
2023/04/10 05:11:49;;;;;;;27.63;17.40;;;7.60;99.90;;;;;;5077138;28;20035;-84
2023/04/10 05:14:15;;;;;;;30.90;17.95;;;7.70;99.90;;;;;;5108131;28;20048;-84
2023/04/10 05:16:40;;;;;;;26.25;17.75;;;7.70;99.90;;;;;;5091085;28;20463;-83
2023/04/10 05:19:06;;;;;;;27.80;18.80;;;7.70;99.90;;;;;;5092179;28;20114;-83
2023/04/10 05:21:32;;;;;;;24.50;15.82;;;7.70;99.90;;;;;;5075744;28;20031;-83
2023/04/10 05:23:57;;;;;;;24.80;17.33;;;7.70;99.90;;;;;;5094674;28;20088;-83
2023/04/10 05:26:23;;;;;;;25.10;16.63;;;7.70;99.90;;;;;;5085255;28;20039;-83
2023/04/10 05:28:49;;;;;;;28.40;16.50;;;7.70;99.90;;;;;;5076659;28;20035;-84
2023/04/10 05:31:15;;;;;;;26.58;16.20;;;7.70;99.90;;;;;;5091190;28;20508;-85
2023/04/10 05:33:40;;;;;;;26.00;14.73;;;7.80;99.90;;;;;;5092371;28;20040;-84
2023/04/10 05:36:06;;;;;;;26.58;16.23;;;7.80;99.90;;;;;;5057175;28;20048;-83
2023/04/10 05:38:32;;;;;;;24.25;14.80;;;7.80;99.90;;;;;;5086688;28;20040;-84
2023/04/10 05:40:58;;;;;;;26.35;16.38;;;7.90;99.90;;;;;;5092084;28;20035;-82
2023/04/10 05:43:23;;;;;;;24.33;15.63;;;7.90;99.90;;;;;;5091717;28;20035;-83
2023/04/10 05:45:49;;;;;;;23.45;15.02;;;8.00;99.90;;;;;;5081345;28;20044;-84
2023/04/10 05:48:15;;;;;;;25.08;16.63;;;8.00;99.90;;;;;;5095039;28;20048;-84
2023/04/10 05:50:40;;;;;;;22.80;14.13;;;8.00;99.90;;;;;;5077397;28;20040;-83
2023/04/10 05:53:13;;;;;;;24.67;14.95;;;8.10;99.90;;;;;;5090609;28;20048;-82
2023/04/10 05:55:39;;;;;;;22.98;15.07;;;8.10;99.90;;;;;;5088764;28;20075;-83
2023/04/10 05:58:04;;;;;;;24.17;15.07;;;8.20;99.90;;;;;;5093977;28;20071;-83
2023/04/10 06:00:30;;;;;;;22.48;14.95;;;8.20;99.90;;;;;;5092784;28;20031;-82
2023/04/10 06:02:56;;;;;;;20.05;13.43;;;8.20;99.90;;;;;;5086288;28;20056;-83
2023/04/10 06:05:21;;;;;;;27.85;17.98;;;8.20;99.90;;;;;;5069358;28;20127;-84
2023/04/10 06:07:47;;;;;;;24.85;16.40;;;8.20;99.90;;;;;;5075358;28;20046;-83
2023/04/10 06:10:13;;;;;;;27.98;16.50;;;8.20;99.90;;;;;;5075926;28;20051;-82
2023/04/10 06:12:39;;;;;;;26.17;16.60;;;8.30;99.90;;;;;;5113350;28;20020;-83
2023/04/10 06:15:05;;;;;;;28.42;17.90;;;8.40;99.90;;;;;;5072447;28;20333;-84
2023/04/10 06:17:31;;;;;;;25.10;16.77;;;8.40;99.90;;;;;;5093787;28;20087;-84
2023/04/10 06:19:59;;;;;;;28.50;16.90;;;8.50;99.90;;;;;;5093656;28;20043;-84
2023/04/10 06:22:25;;;;;;;24.30;15.55;;;8.60;99.90;;;;;;5092484;28;20561;-84
2023/04/10 06:24:51;;;;;;;24.33;16.13;;;8.50;99.90;;;;;;5095521;28;20151;-84
2023/04/10 06:27:17;;;;;;;25.10;15.85;;;8.60;99.90;;;;;;5096096;28;20395;-84
2023/04/10 06:29:42;;;;;;;27.75;16.58;;;8.60;99.90;;;;;;5081489;28;20043;-83
2023/04/10 06:32:08;;;;;;;23.88;16.45;;;8.70;99.90;;;;;;5097207;28;20044;-85
2023/04/10 06:34:34;;;;;;;26.17;16.52;;;8.70;99.90;;;;;;5093799;28;20099;-84
2023/04/10 06:36:59;;;;;;;24.38;15.50;;;8.80;99.90;;;;;;5076842;28;20050;-81
2023/04/10 06:39:25;;;;;;;23.95;15.80;;;8.80;99.90;;;;;;5093704;28;20101;-82
2023/04/10 06:41:51;;;;;;;24.08;15.57;;;8.90;99.90;;;;;;5095889;28;20075;-82
2023/04/10 06:44:16;;;;;;;25.55;16.58;;;8.90;99.90;;;;;;5096850;28;20044;-83
2023/04/10 06:46:42;;;;;;;27.85;15.88;;;9.00;99.90;;;;;;5096804;28;20036;-81
2023/04/10 06:49:08;;;;;;;23.10;15.98;;;9.00;99.90;;;;;;5079746;28;20134;-81
2023/04/10 06:51:33;;;;;;;23.08;15.98;;;9.10;99.90;;;;;;5078026;28;20498;-83
2023/04/10 06:53:59;;;;;;;23.73;13.93;;;9.20;99.90;;;;;;5076439;28;20122;-82
2023/04/10 06:56:25;;;;;;;24.35;15.93;;;9.40;99.90;;;;;;5076583;28;20051;-84
2023/04/10 06:58:51;;;;;;;23.80;15.32;;;9.50;99.90;;;;;;5069059;28;20042;-83
2023/04/10 07:01:17;;;;;;;22.92;14.88;;;9.60;99.90;;;;;;5089591;28;20059;-84
2023/04/10 07:03:42;;;;;;;26.27;15.27;;;9.70;99.90;;;;;;5086887;28;20048;-83
2023/04/10 07:06:09;;;;;;;24.17;15.45;;;9.80;99.90;;;;;;5075370;28;20044;-83
2023/04/10 07:08:35;;;;;;;20.00;13.73;;;10.00;99.90;;;;;;5090334;28;20036;-84
2023/04/10 07:11:01;;;;;;;23.33;15.30;;;10.10;99.90;;;;;;5090932;28;20362;-83
2023/04/10 07:13:27;;;;;;;21.50;14.68;;;10.20;99.90;;;;;;5069907;28;20036;-83
2023/04/10 07:15:52;;;;;;;21.65;14.10;;;10.40;99.90;;;;;;5075960;28;20043;-82
2023/04/10 07:18:18;;;;;;;20.65;13.77;;;10.60;99.90;;;;;;5092722;28;20108;-82
2023/04/10 07:20:43;;;;;;;24.77;15.50;;;10.80;99.90;;;;;;5093341;28;20059;-83
2023/04/10 07:23:10;;;;;;;20.90;14.48;;;11.00;99.90;;;;;;5092051;28;20036;-82
2023/04/10 07:25:35;;;;;;;21.75;14.80;;;11.20;99.90;;;;;;5092854;28;20040;-82
2023/04/10 07:28:01;;;;;;;20.38;13.35;;;11.30;99.90;;;;;;5082124;28;20040;-82
2023/04/10 07:30:27;;;;;;;19.85;13.35;;;11.40;99.90;;;;;;5101164;28;20176;-83
2023/04/10 07:32:52;;;;;;;19.90;12.90;;;11.60;99.90;;;;;;5091522;28;20039;-83
2023/04/10 07:35:19;;;;;;;21.42;14.02;;;11.70;99.90;;;;;;5089465;28;20043;-83
2023/04/10 07:37:49;;;;;;;19.58;13.10;;;11.80;99.90;;;;;;5084322;28;20051;-83
2023/04/10 07:40:14;;;;;;;18.33;12.60;;;11.90;99.90;;;;;;5090117;28;20098;-81
2023/04/10 07:42:40;;;;;;;17.30;11.75;;;12.10;99.90;;;;;;5072308;28;20031;-83
2023/04/10 07:45:06;;;;;;;16.70;11.50;;;12.20;99.90;;;;;;5091792;28;20040;-83
2023/04/10 07:47:32;;;;;;;18.23;11.75;;;12.40;99.90;;;;;;5084893;28;20484;-83
2023/04/10 07:49:58;;;;;;;17.73;11.20;;;12.60;99.90;;;;;;5071562;28;20047;-84
2023/04/10 07:52:24;;;;;;;19.08;10.82;;;12.70;99.90;;;;;;5089203;28;20076;-82
2023/04/10 07:54:50;;;;;;;17.33;11.32;;;12.70;99.90;;;;;;5059261;28;20040;-83
2023/04/10 07:57:16;;;;;;;17.83;12.35;;;12.70;99.90;;;;;;5084382;28;20044;-82
2023/04/10 07:59:42;;;;;;;17.98;12.00;;;12.60;99.90;;;;;;5073345;28;20040;-83
2023/04/10 08:02:07;;;;;;;16.83;11.10;;;12.60;99.90;;;;;;5089743;28;20625;-83
2023/04/10 08:04:33;;;;;;;15.90;11.32;;;12.60;99.90;;;;;;5076335;28;20409;-83
2023/04/10 08:06:59;;;;;;;16.25;11.20;;;12.70;99.90;;;;;;5093150;28;20113;-82
2023/04/10 08:09:24;;;;;;;17.23;11.68;;;12.70;99.90;;;;;;5074642;28;20044;-83
2023/04/10 08:11:50;;;;;;;17.00;13.00;;;12.80;99.90;;;;;;5067486;28;20541;-82
2023/04/10 08:14:16;;;;;;;15.38;11.48;;;12.80;99.90;;;;;;5067803;28;20047;-83
2023/04/10 08:16:41;;;;;;;15.85;11.05;;;12.90;99.90;;;;;;5088425;28;20040;-82
2023/04/10 08:19:07;;;;;;;14.95;7.95;;;13.00;99.90;;;;;;5068430;28;20040;-83
2023/04/10 08:21:33;;;;;;;13.95;9.05;;;13.00;99.90;;;;;;5085788;28;20044;-83
2023/04/10 08:24:01;;;;;;;14.20;10.48;;;13.10;99.60;;;;;;5072532;28;20075;-83
2023/04/10 08:26:28;;;;;;;13.85;10.35;;;13.20;99.40;;;;;;5073268;28;20404;-83
2023/04/10 08:28:56;;;;;;;16.00;11.07;;;13.20;99.90;;;;;;5083746;28;20071;-83
2023/04/10 08:31:23;;;;;;;14.98;10.48;;;13.30;99.90;;;;;;5090018;28;20044;-82
2023/04/10 08:33:49;;;;;;;15.02;10.48;;;13.40;99.90;;;;;;5089562;28;20040;-82
2023/04/10 08:36:15;;;;;;;14.40;10.60;;;13.50;99.00;;;;;;5086464;28;20519;-83
2023/04/10 08:38:41;;;;;;;14.50;9.75;;;13.50;98.80;;;;;;5091345;28;20035;-83
2023/04/10 08:41:19;;;;;;;15.57;10.13;;;13.50;98.10;;;;;;5101287;28;20045;-83
2023/04/10 08:43:45;;;;;;;14.75;10.00;;;13.50;97.50;;;;;;5103794;28;20056;-82
2023/04/10 08:46:14;;;;;;;13.23;10.05;;;13.50;97.60;;;;;;5091733;28;20043;-83
2023/04/10 08:48:52;;;;;;;12.65;9.27;;;13.60;98.10;;;;;;5057719;28;20040;-83
2023/04/10 08:51:25;;;;;;;12.77;9.68;;;13.70;97.30;;;;;;5072418;28;20048;-84
2023/04/10 08:53:52;;;;;;;13.60;9.60;;;13.70;97.00;;;;;;5088332;28;20488;-83
2023/04/10 08:56:18;;;;;;;14.13;9.90;;;13.70;97.10;;;;;;5070531;28;20054;-83
2023/04/10 08:58:44;;;;;;;13.98;10.07;;;13.70;97.70;;;;;;5090147;28;20036;-82
2023/04/10 09:01:10;;;;;;;13.23;9.23;;;13.70;97.90;;;;;;5070289;28;20043;-83
2023/04/10 09:03:37;;;;;;;14.82;8.98;;;13.80;97.70;;;;;;5083792;28;20493;-84
2023/04/10 09:06:04;;;;;;;14.63;10.90;;;13.90;97.30;;;;;;5089231;28;20055;-82
2023/04/10 09:08:30;;;;;;;13.50;9.48;;;14.00;97.30;;;;;;5090710;28;20044;-83
2023/04/10 09:10:56;;;;;;;12.05;8.07;;;14.00;97.30;;;;;;5086480;28;20472;-83
2023/04/10 09:13:36;;;;;;;13.50;10.27;;;14.00;96.70;;;;;;5071547;28;20044;-82
2023/04/10 09:16:03;;;;;;;14.15;10.05;;;14.00;96.70;;;;;;5070392;28;20370;-83
2023/04/10 09:18:50;;;;;;;15.32;10.02;;;14.00;96.50;;;;;;5088800;28;20040;-83
2023/04/10 09:21:17;;;;;;;;;;;13.90;96.70;;;;;;5089458;28;20489;-83
2023/04/10 09:23:44;;;;;;;12.10;8.65;;;14.00;96.90;;;;;;5070926;28;19923;-84
2023/04/10 09:26:27;;;;;;;12.60;8.50;;;14.00;96.90;;;;;;5087004;28;20492;-83
2023/04/10 09:28:59;;;;;;;13.65;8.70;;;14.00;96.70;;;;;;5084449;28;20042;-84
2023/04/10 09:31:30;;;;;;;13.35;9.00;;;14.10;97.60;;;;;;5081856;28;20078;-82
2023/04/10 09:34:20;;;;;;;13.32;8.50;;;14.20;98.20;;;;;;5087406;28;20037;-82
2023/04/10 09:37:02;;;;;;;13.38;7.88;;;14.40;98.40;;;;;;5088650;28;20111;-84
2023/04/10 09:39:34;;;;;;;11.25;7.85;;;14.60;96.30;;;;;;5082219;28;20100;-81
2023/04/10 09:42:00;;;;;;;11.90;7.20;;;14.60;96.30;;;;;;5069616;28;20059;-83
2023/04/10 09:44:33;;;;;;;11.18;7.78;;;14.70;96.00;;;;;;5081699;28;20047;-83
2023/04/10 09:47:20;;;;;;;11.30;9.30;;;14.80;95.10;;;;;;5088008;28;20488;-83
2023/04/10 09:49:47;;;;;;;11.02;7.43;;;14.90;95.10;;;;;;5075012;28;20484;-83
2023/04/10 09:52:24;;;;;;;14.85;10.02;;;14.90;94.80;;;;;;5090318;28;20120;-82
2023/04/10 09:54:51;;;;;;;11.75;8.05;;;15.00;95.20;;;;;;5094754;28;20103;-83
2023/04/10 09:57:19;;;;;;;11.68;8.55;;;15.00;94.70;;;;;;5115681;28;20043;-83
2023/04/10 09:59:53;;;;;;;11.60;8.43;;;15.00;94.40;;;;;;5095575;28;20044;-84
2023/04/10 10:02:21;;;;;;;10.77;7.47;;;14.90;95.10;;;;;;5089857;28;20044;-84
2023/04/10 10:04:48;;;;;;;10.27;7.15;;;14.90;94.90;;;;;;5070185;28;20123;-83
2023/04/10 10:07:18;;;;;;;10.43;8.50;;;14.90;94.50;;;;;;5062866;28;20083;-82
2023/04/10 10:09:46;;;;;;;10.98;6.95;;;14.90;94.50;;;;;;5079196;28;20077;-82
2023/04/10 10:12:23;;;;;;;9.55;6.70;;;15.00;95.10;;;;;;5090027;28;20412;-83
2023/04/10 10:15:00;;;;;;;10.07;6.22;;;15.00;94.00;;;;;;5088961;28;20442;-82
2023/04/10 10:17:33;;;;;;;11.50;7.13;;;15.00;94.50;;;;;;5093235;28;20060;-82
2023/04/10 10:20:04;;;;;;;9.55;6.57;;;15.00;94.40;;;;;;5078142;28;20119;-83
2023/04/10 10:22:31;;;;;;;11.63;8.02;;;15.00;94.00;;;;;;5092088;28;20044;-83
2023/04/10 10:24:59;;;;;;;10.30;7.25;;;15.00;94.30;;;;;;5091975;28;20044;-83
2023/04/10 10:27:27;;;;;;;10.13;7.10;;;15.00;94.00;;;;;;5083571;28;20044;-83
2023/04/10 10:29:56;;;;;;;10.80;7.88;;;14.90;94.10;;;;;;5085036;28;20043;-83
2023/04/10 10:32:22;;;;;;;9.52;6.88;;;14.90;94.20;;;;;;5093460;28;20036;-83
2023/04/10 10:34:52;;;;;;;11.30;8.05;;;14.90;94.10;;;;;;5091065;28;20119;-83
2023/04/10 10:37:22;;;;;;;11.45;8.18;;;14.90;94.70;;;;;;5087344;28;20127;-83
2023/04/10 10:40:08;;;;;;;9.75;7.72;;;14.90;95.20;;;;;;5084260;28;20060;-82
2023/04/10 10:42:49;;;;;;;8.73;7.47;;;14.90;95.50;;;;;;5084049;28;20048;-84
2023/04/10 10:45:20;;;;;;;10.70;7.00;;;15.00;94.80;;;;;;5087580;28;20043;-83
2023/04/10 10:47:53;;;;;;;12.50;7.32;;;15.00;94.50;;;;;;5086349;28;20046;-83
2023/04/10 10:50:21;;;;;;;9.82;6.80;;;15.10;94.80;;;;;;5083377;28;20823;-83
2023/04/10 10:52:52;;;;;;;10.20;7.07;;;15.30;95.00;;;;;;5090843;28;20036;-84
2023/04/10 10:55:21;;;;;;;9.38;6.85;;;15.30;95.00;;;;;;5088537;28;20088;-83
2023/04/10 10:57:55;;;;;;;9.40;6.53;;;15.30;95.10;;;;;;5079420;28;20557;-83
2023/04/10 11:00:22;;;;;;;8.65;7.10;;;15.40;95.20;;;;;;5076559;28;20047;-83
2023/04/10 11:03:06;;;;;;;8.43;6.45;;;15.40;93.90;;;;;;5074774;28;20055;-83
2023/04/10 11:05:55;;;;;;;7.82;6.45;;;15.50;94.40;;;;;;5085039;28;20388;-84
2023/04/10 11:08:35;;;;;;;8.82;6.00;;;15.50;93.70;;;;;;5084419;28;20043;-83
2023/04/10 11:11:22;;;;;;;7.95;6.35;;;15.50;93.70;;;;;;5092988;28;20075;-82
2023/04/10 11:13:55;;;;;;;;;;;15.50;93.90;;;;;;5105833;28;20111;-83
2023/04/10 11:16:35;;;;;;;9.88;7.05;;;15.50;93.60;;;;;;5092231;28;19920;-83
2023/04/10 11:19:06;;;;;;;10.35;7.10;;;15.40;93.80;;;;;;5068214;28;20039;-84
2023/04/10 11:21:33;;;;;;;9.25;6.38;;;15.40;94.10;;;;;;5066772;28;20476;-83
2023/04/10 11:23:59;;;;;;;9.77;6.75;;;15.40;94.30;;;;;;5057659;28;20086;-84
2023/04/10 11:29:25;;;;;;;10.43;7.18;;;15.50;94.40;;;;;;5091619;28;20036;-84
2023/04/10 11:31:59;;;;;;;9.30;6.68;;;15.60;94.10;;;;;;5077921;28;20484;-83
2023/04/10 11:34:35;;;;;;;9.55;5.97;;;15.60;94.30;;;;;;5088608;28;20039;-83
2023/04/10 11:37:03;;;;;;;8.40;5.75;;;15.60;94.20;;;;;;5107972;28;20048;-83
2023/04/10 11:39:30;;;;;;;9.35;5.63;;;15.70;93.80;;;;;;5054497;28;20071;-83
2023/04/10 11:41:56;;;;;;;9.55;7.05;;;15.70;93.70;;;;;;5090226;28;20051;-84
2023/04/10 11:44:34;;;;;;;9.05;5.68;;;15.70;93.70;;;;;;5070547;28;20154;-82
2023/04/10 11:47:00;;;;;;;8.55;6.20;;;15.80;93.90;;;;;;5088180;28;20072;-83
2023/04/10 11:49:33;;;;;;;8.55;6.85;;;15.90;94.70;;;;;;5073095;28;20090;-83
2023/04/10 11:51:59;;;;;;;9.80;6.75;;;16.00;94.50;;;;;;5090325;28;20048;-83
2023/04/10 11:54:27;;;;;;;10.25;8.00;;;16.10;94.70;;;;;;5091501;28;20132;-83
2023/04/10 11:57:03;;;;;;;9.95;7.43;;;16.20;94.10;;;;;;5074222;28;20400;-83
2023/04/10 11:59:30;;;;;;;9.55;6.85;;;16.30;94.70;;;;;;5084336;28;20059;-82
2023/04/10 12:02:08;;;;;;;9.70;7.53;;;16.40;94.70;;;;;;5089245;28;20090;-84
2023/04/10 12:04:34;;;;;;;9.10;6.40;;;16.60;94.30;;;;;;5089893;28;20134;-83
2023/04/10 12:07:00;;;;;;;11.50;7.35;;;16.70;94.00;;;;;;5091108;28;20051;-83
2023/04/10 12:09:26;;;;;;;8.85;6.53;;;16.90;93.40;;;;;;5092264;28;20039;-83
2023/04/10 12:12:00;;;;;;;7.88;6.50;;;16.90;93.00;;;;;;5074306;28;20036;-83
2023/04/10 12:14:45;;;;;;;7.85;6.32;;;16.90;92.70;;;;;;5091646;28;20058;-82
2023/04/10 12:17:11;;;;;;;9.45;6.35;;;16.80;92.80;;;;;;5091246;28;20066;-84
2023/04/10 12:19:38;;;;;;;10.35;6.65;;;16.70;93.40;;;;;;5091663;28;20383;-84
2023/04/10 12:22:04;;;;;;;6.70;5.07;;;16.60;93.70;;;;;;5093645;28;20052;-84
2023/04/10 12:24:46;;;;;;;8.52;5.60;;;16.60;93.00;;;;;;5075701;28;20028;-83
2023/04/10 12:27:19;;;;;;;6.85;5.40;;;16.60;92.90;;;;;;5090501;28;20040;-83
2023/04/10 12:29:47;;;;;;;6.78;4.65;;;16.50;93.60;;;;;;5102571;28;20050;-84
2023/04/10 12:32:13;;;;;;;7.32;5.82;;;16.50;92.60;;;;;;5090521;28;20051;-84
2023/04/10 12:34:39;;;;;;;9.10;6.30;;;16.40;92.70;;;;;;5072091;28;20128;-84
2023/04/10 12:37:06;;;;;;;8.15;5.95;;;16.40;92.60;;;;;;5091443;28;20404;-84
2023/04/10 12:39:32;;;;;;;8.80;5.65;;;16.30;93.20;;;;;;5091566;28;20444;-83
2023/04/10 12:42:18;;;;;;;7.22;5.43;;;16.40;92.90;;;;;;5091068;28;20119;-84
2023/04/10 12:45:14;;;;;;;7.55;5.70;;;16.30;93.30;;;;;;5093657;28;20035;-83
2023/04/10 12:47:52;;;;;;;8.52;4.03;;;16.30;93.20;;;;;;5085872;28;20173;-83